sensor_id;sensor_type;location;lat;lon;timestamp;P1;durP1;ratioP1;P2;durP2;ratioP2
8572;SDS011;4324;42.012;24.872;2023-01-19T00:01:36;29.77;;;7.73;;
8572;SDS011;4324;42.012;24.872;2023-01-19T00:04:03;19.50;;;6.17;;
8572;SDS011;4324;42.012;24.872;2023-01-19T00:06:30;26.03;;;6.40;;
8572;SDS011;4324;42.012;24.872;2023-01-19T00:08:57;25.77;;;6.53;;
8572;SDS011;4324;42.012;24.872;2023-01-19T00:11:24;22.53;;;6.30;;
8572;SDS011;4324;42.012;24.872;2023-01-19T00:13:53;24.70;;;6.20;;
8572;SDS011;4324;42.012;24.872;2023-01-19T00:16:20;21.53;;;6.13;;
8572;SDS011;4324;42.012;24.872;2023-01-19T00:18:47;23.47;;;6.50;;
8572;SDS011;4324;42.012;24.872;2023-01-19T00:21:16;27.63;;;7.07;;
8572;SDS011;4324;42.012;24.872;2023-01-19T00:23:43;21.33;;;6.70;;
8572;SDS011;4324;42.012;24.872;2023-01-19T00:26:12;26.27;;;7.10;;
8572;SDS011;4324;42.012;24.872;2023-01-19T00:28:41;24.47;;;6.83;;
8572;SDS011;4324;42.012;24.872;2023-01-19T00:31:09;18.57;;;6.00;;
8572;SDS011;4324;42.012;24.872;2023-01-19T00:33:36;20.70;;;7.37;;
8572;SDS011;4324;42.012;24.872;2023-01-19T00:36:03;29.73;;;7.93;;
8572;SDS011;4324;42.012;24.872;2023-01-19T00:38:30;26.10;;;6.43;;
8572;SDS011;4324;42.012;24.872;2023-01-19T00:40:57;20.10;;;6.00;;
8572;SDS011;4324;42.012;24.872;2023-01-19T00:43:24;27.63;;;6.63;;
8572;SDS011;4324;42.012;24.872;2023-01-19T00:45:50;27.80;;;6.63;;
8572;SDS011;4324;42.012;24.872;2023-01-19T00:48:19;24.23;;;6.07;;
8572;SDS011;4324;42.012;24.872;2023-01-19T00:50:46;21.97;;;6.23;;
8572;SDS011;4324;42.012;24.872;2023-01-19T00:53:13;22.10;;;6.00;;
8572;SDS011;4324;42.012;24.872;2023-01-19T00:55:40;20.80;;;5.97;;
8572;SDS011;4324;42.012;24.872;2023-01-19T00:58:07;20.63;;;5.37;;
8572;SDS011;4324;42.012;24.872;2023-01-19T01:00:34;26.43;;;5.90;;
8572;SDS011;4324;42.012;24.872;2023-01-19T01:03:01;24.30;;;5.50;;
8572;SDS011;4324;42.012;24.872;2023-01-19T01:05:29;22.87;;;5.83;;
8572;SDS011;4324;42.012;24.872;2023-01-19T01:07:57;25.13;;;6.33;;
8572;SDS011;4324;42.012;24.872;2023-01-19T01:10:25;19.90;;;5.80;;
8572;SDS011;4324;42.012;24.872;2023-01-19T01:12:53;22.37;;;6.00;;
8572;SDS011;4324;42.012;24.872;2023-01-19T01:15:21;24.53;;;6.13;;
8572;SDS011;4324;42.012;24.872;2023-01-19T01:17:48;19.40;;;6.00;;
8572;SDS011;4324;42.012;24.872;2023-01-19T01:20:17;23.43;;;5.03;;
8572;SDS011;4324;42.012;24.872;2023-01-19T01:22:48;18.20;;;4.80;;
8572;SDS011;4324;42.012;24.872;2023-01-19T01:25:17;22.47;;;6.47;;
8572;SDS011;4324;42.012;24.872;2023-01-19T01:27:46;19.87;;;5.20;;
8572;SDS011;4324;42.012;24.872;2023-01-19T01:30:14;19.13;;;5.97;;
8572;SDS011;4324;42.012;24.872;2023-01-19T01:32:41;18.30;;;4.80;;
8572;SDS011;4324;42.012;24.872;2023-01-19T01:35:09;20.17;;;5.03;;
8572;SDS011;4324;42.012;24.872;2023-01-19T01:37:36;17.33;;;5.70;;
8572;SDS011;4324;42.012;24.872;2023-01-19T01:40:06;19.70;;;5.37;;
8572;SDS011;4324;42.012;24.872;2023-01-19T01:42:34;19.80;;;5.27;;
8572;SDS011;4324;42.012;24.872;2023-01-19T01:45:01;20.27;;;5.30;;
8572;SDS011;4324;42.012;24.872;2023-01-19T01:47:33;20.77;;;5.97;;
8572;SDS011;4324;42.012;24.872;2023-01-19T01:50:07;18.43;;;5.67;;
8572;SDS011;4324;42.012;24.872;2023-01-19T01:52:41;20.60;;;6.23;;
8572;SDS011;4324;42.012;24.872;2023-01-19T01:55:14;25.37;;;7.87;;
8572;SDS011;4324;42.012;24.872;2023-01-19T01:57:42;17.00;;;6.00;;
8572;SDS011;4324;42.012;24.872;2023-01-19T02:00:15;16.23;;;5.73;;
8572;SDS011;4324;42.012;24.872;2023-01-19T02:02:43;22.40;;;6.03;;
8572;SDS011;4324;42.012;24.872;2023-01-19T02:05:16;21.97;;;5.57;;
8572;SDS011;4324;42.012;24.872;2023-01-19T02:07:47;24.10;;;6.13;;
8572;SDS011;4324;42.012;24.872;2023-01-19T02:10:37;22.67;;;5.60;;
8572;SDS011;4324;42.012;24.872;2023-01-19T02:13:23;22.10;;;6.17;;
8572;SDS011;4324;42.012;24.872;2023-01-19T02:15:51;27.50;;;5.97;;
8572;SDS011;4324;42.012;24.872;2023-01-19T02:18:21;21.23;;;6.93;;
8572;SDS011;4324;42.012;24.872;2023-01-19T02:20:52;24.83;;;6.60;;
8572;SDS011;4324;42.012;24.872;2023-01-19T02:23:31;29.43;;;6.83;;
8572;SDS011;4324;42.012;24.872;2023-01-19T02:26:04;25.77;;;7.57;;
8572;SDS011;4324;42.012;24.872;2023-01-19T02:28:33;24.90;;;7.70;;
8572;SDS011;4324;42.012;24.872;2023-01-19T02:31:03;21.93;;;6.00;;
8572;SDS011;4324;42.012;24.872;2023-01-19T02:33:31;19.73;;;5.63;;
8572;SDS011;4324;42.012;24.872;2023-01-19T02:35:58;22.90;;;6.60;;
8572;SDS011;4324;42.012;24.872;2023-01-19T02:38:26;23.33;;;6.40;;
8572;SDS011;4324;42.012;24.872;2023-01-19T02:40:56;26.17;;;6.67;;
8572;SDS011;4324;42.012;24.872;2023-01-19T02:43:25;18.30;;;5.77;;
8572;SDS011;4324;42.012;24.872;2023-01-19T02:45:55;24.27;;;5.93;;
8572;SDS011;4324;42.012;24.872;2023-01-19T02:48:22;20.17;;;6.40;;
8572;SDS011;4324;42.012;24.872;2023-01-19T02:50:50;28.97;;;6.80;;
8572;SDS011;4324;42.012;24.872;2023-01-19T02:53:32;26.33;;;6.80;;
8572;SDS011;4324;42.012;24.872;2023-01-19T02:56:24;27.33;;;7.17;;
8572;SDS011;4324;42.012;24.872;2023-01-19T02:59:28;33.50;;;9.53;;
8572;SDS011;4324;42.012;24.872;2023-01-19T03:02:09;26.37;;;7.90;;
8572;SDS011;4324;42.012;24.872;2023-01-19T03:04:49;26.43;;;8.57;;
8572;SDS011;4324;42.012;24.872;2023-01-19T03:07:35;22.47;;;7.90;;
8572;SDS011;4324;42.012;24.872;2023-01-19T03:10:16;23.87;;;7.33;;
8572;SDS011;4324;42.012;24.872;2023-01-19T03:12:54;27.67;;;8.27;;
8572;SDS011;4324;42.012;24.872;2023-01-19T03:15:28;25.73;;;7.67;;
8572;SDS011;4324;42.012;24.872;2023-01-19T03:18:01;21.23;;;6.73;;
8572;SDS011;4324;42.012;24.872;2023-01-19T03:20:33;20.57;;;6.60;;
8572;SDS011;4324;42.012;24.872;2023-01-19T03:23:03;28.90;;;7.30;;
8572;SDS011;4324;42.012;24.872;2023-01-19T03:25:34;24.70;;;7.53;;
8572;SDS011;4324;42.012;24.872;2023-01-19T03:28:07;22.07;;;7.73;;
8572;SDS011;4324;42.012;24.872;2023-01-19T03:30:34;17.70;;;5.17;;
8572;SDS011;4324;42.012;24.872;2023-01-19T03:33:06;32.73;;;9.50;;
8572;SDS011;4324;42.012;24.872;2023-01-19T03:35:37;26.87;;;7.37;;
8572;SDS011;4324;42.012;24.872;2023-01-19T03:38:11;25.30;;;7.37;;
8572;SDS011;4324;42.012;24.872;2023-01-19T03:40:42;22.63;;;7.50;;
8572;SDS011;4324;42.012;24.872;2023-01-19T03:43:11;21.70;;;6.93;;
8572;SDS011;4324;42.012;24.872;2023-01-19T03:45:40;29.03;;;7.80;;
8572;SDS011;4324;42.012;24.872;2023-01-19T03:48:09;26.47;;;8.60;;
8572;SDS011;4324;42.012;24.872;2023-01-19T03:50:36;24.67;;;8.90;;
8572;SDS011;4324;42.012;24.872;2023-01-19T03:53:07;22.93;;;7.53;;
8572;SDS011;4324;42.012;24.872;2023-01-19T03:55:36;24.20;;;5.97;;
8572;SDS011;4324;42.012;24.872;2023-01-19T03:58:04;23.80;;;6.23;;
8572;SDS011;4324;42.012;24.872;2023-01-19T04:00:32;25.90;;;4.77;;
8572;SDS011;4324;42.012;24.872;2023-01-19T04:03:00;17.33;;;5.43;;
8572;SDS011;4324;42.012;24.872;2023-01-19T04:05:27;18.23;;;5.67;;
8572;SDS011;4324;42.012;24.872;2023-01-19T04:07:54;28.70;;;6.40;;
8572;SDS011;4324;42.012;24.872;2023-01-19T04:10:21;27.40;;;6.03;;
8572;SDS011;4324;42.012;24.872;2023-01-19T04:12:49;24.67;;;4.80;;
8572;SDS011;4324;42.012;24.872;2023-01-19T04:15:22;19.77;;;5.77;;
8572;SDS011;4324;42.012;24.872;2023-01-19T04:17:50;26.83;;;7.70;;
8572;SDS011;4324;42.012;24.872;2023-01-19T04:20:17;26.60;;;10.10;;
8572;SDS011;4324;42.012;24.872;2023-01-19T04:22:47;26.30;;;9.10;;
8572;SDS011;4324;42.012;24.872;2023-01-19T04:25:14;26.23;;;7.87;;
8572;SDS011;4324;42.012;24.872;2023-01-19T04:27:41;20.03;;;8.43;;
8572;SDS011;4324;42.012;24.872;2023-01-19T04:30:09;29.60;;;7.30;;
8572;SDS011;4324;42.012;24.872;2023-01-19T04:32:36;28.03;;;8.73;;
8572;SDS011;4324;42.012;24.872;2023-01-19T04:35:05;22.90;;;8.00;;
8572;SDS011;4324;42.012;24.872;2023-01-19T04:37:32;24.70;;;7.60;;
8572;SDS011;4324;42.012;24.872;2023-01-19T04:39:59;25.10;;;7.40;;
8572;SDS011;4324;42.012;24.872;2023-01-19T04:42:26;28.10;;;9.00;;
8572;SDS011;4324;42.012;24.872;2023-01-19T04:44:53;28.93;;;8.30;;
8572;SDS011;4324;42.012;24.872;2023-01-19T04:47:20;29.30;;;8.80;;
8572;SDS011;4324;42.012;24.872;2023-01-19T04:49:47;25.53;;;7.30;;
8572;SDS011;4324;42.012;24.872;2023-01-19T04:52:16;25.77;;;7.27;;
8572;SDS011;4324;42.012;24.872;2023-01-19T04:54:42;26.27;;;8.03;;
8572;SDS011;4324;42.012;24.872;2023-01-19T04:57:09;22.03;;;7.30;;
8572;SDS011;4324;42.012;24.872;2023-01-19T04:59:36;23.33;;;8.87;;
8572;SDS011;4324;42.012;24.872;2023-01-19T05:02:03;21.90;;;6.13;;
8572;SDS011;4324;42.012;24.872;2023-01-19T05:04:30;23.70;;;6.27;;
8572;SDS011;4324;42.012;24.872;2023-01-19T05:06:57;33.80;;;11.97;;
8572;SDS011;4324;42.012;24.872;2023-01-19T05:09:26;27.10;;;11.17;;
8572;SDS011;4324;42.012;24.872;2023-01-19T05:11:53;29.13;;;8.23;;
8572;SDS011;4324;42.012;24.872;2023-01-19T05:14:20;26.00;;;7.40;;
8572;SDS011;4324;42.012;24.872;2023-01-19T05:16:47;35.37;;;9.73;;
8572;SDS011;4324;42.012;24.872;2023-01-19T05:19:14;22.53;;;7.63;;
8572;SDS011;4324;42.012;24.872;2023-01-19T05:21:41;24.20;;;6.20;;
8572;SDS011;4324;42.012;24.872;2023-01-19T05:24:08;21.17;;;6.80;;
8572;SDS011;4324;42.012;24.872;2023-01-19T05:26:36;19.73;;;6.77;;
8572;SDS011;4324;42.012;24.872;2023-01-19T05:29:03;25.33;;;5.70;;
8572;SDS011;4324;42.012;24.872;2023-01-19T05:31:30;26.20;;;6.43;;
8572;SDS011;4324;42.012;24.872;2023-01-19T05:33:57;17.97;;;5.50;;
8572;SDS011;4324;42.012;24.872;2023-01-19T05:36:24;23.33;;;5.97;;
8572;SDS011;4324;42.012;24.872;2023-01-19T05:38:51;22.67;;;6.17;;
8572;SDS011;4324;42.012;24.872;2023-01-19T05:41:18;20.53;;;6.13;;
8572;SDS011;4324;42.012;24.872;2023-01-19T05:43:46;18.13;;;5.60;;
8572;SDS011;4324;42.012;24.872;2023-01-19T05:46:14;24.47;;;5.77;;
8572;SDS011;4324;42.012;24.872;2023-01-19T05:48:41;26.70;;;7.73;;
8572;SDS011;4324;42.012;24.872;2023-01-19T05:51:08;21.80;;;5.70;;
8572;SDS011;4324;42.012;24.872;2023-01-19T05:53:35;26.57;;;6.10;;
8572;SDS011;4324;42.012;24.872;2023-01-19T05:56:03;25.43;;;6.50;;
8572;SDS011;4324;42.012;24.872;2023-01-19T05:58:33;27.03;;;6.90;;
8572;SDS011;4324;42.012;24.872;2023-01-19T06:01:02;22.53;;;7.60;;
8572;SDS011;4324;42.012;24.872;2023-01-19T06:03:30;43.13;;;12.37;;
8572;SDS011;4324;42.012;24.872;2023-01-19T06:05:58;36.27;;;10.97;;
8572;SDS011;4324;42.012;24.872;2023-01-19T06:08:25;24.57;;;7.97;;
8572;SDS011;4324;42.012;24.872;2023-01-19T06:10:53;24.60;;;8.70;;
8572;SDS011;4324;42.012;24.872;2023-01-19T06:13:20;23.83;;;9.47;;
8572;SDS011;4324;42.012;24.872;2023-01-19T06:15:47;27.37;;;7.97;;
8572;SDS011;4324;42.012;24.872;2023-01-19T06:18:15;30.47;;;7.43;;
8572;SDS011;4324;42.012;24.872;2023-01-19T06:20:42;31.47;;;6.43;;
8572;SDS011;4324;42.012;24.872;2023-01-19T06:23:09;24.87;;;8.00;;
8572;SDS011;4324;42.012;24.872;2023-01-19T06:25:36;30.13;;;8.00;;
8572;SDS011;4324;42.012;24.872;2023-01-19T06:28:03;31.10;;;7.57;;
8572;SDS011;4324;42.012;24.872;2023-01-19T06:30:30;19.83;;;5.67;;
8572;SDS011;4324;42.012;24.872;2023-01-19T06:32:57;24.37;;;5.63;;
8572;SDS011;4324;42.012;24.872;2023-01-19T06:35:26;23.00;;;7.27;;
8572;SDS011;4324;42.012;24.872;2023-01-19T06:37:52;25.43;;;6.33;;
8572;SDS011;4324;42.012;24.872;2023-01-19T06:40:19;28.93;;;7.90;;
8572;SDS011;4324;42.012;24.872;2023-01-19T06:42:47;22.07;;;6.07;;
8572;SDS011;4324;42.012;24.872;2023-01-19T06:45:14;26.63;;;7.27;;
8572;SDS011;4324;42.012;24.872;2023-01-19T06:47:42;27.93;;;7.40;;
8572;SDS011;4324;42.012;24.872;2023-01-19T06:50:09;24.77;;;6.70;;
8572;SDS011;4324;42.012;24.872;2023-01-19T06:52:38;19.67;;;6.50;;
8572;SDS011;4324;42.012;24.872;2023-01-19T06:55:07;27.10;;;7.97;;
8572;SDS011;4324;42.012;24.872;2023-01-19T06:57:35;25.60;;;6.80;;
8572;SDS011;4324;42.012;24.872;2023-01-19T07:00:03;35.90;;;9.10;;
8572;SDS011;4324;42.012;24.872;2023-01-19T07:02:32;28.00;;;7.03;;
8572;SDS011;4324;42.012;24.872;2023-01-19T07:04:59;34.03;;;6.97;;
8572;SDS011;4324;42.012;24.872;2023-01-19T07:07:26;26.90;;;7.57;;
8572;SDS011;4324;42.012;24.872;2023-01-19T07:09:55;27.60;;;5.63;;
8572;SDS011;4324;42.012;24.872;2023-01-19T07:12:22;25.10;;;6.20;;
8572;SDS011;4324;42.012;24.872;2023-01-19T07:14:49;28.40;;;7.73;;
8572;SDS011;4324;42.012;24.872;2023-01-19T07:17:18;26.97;;;6.50;;
8572;SDS011;4324;42.012;24.872;2023-01-19T07:19:45;19.50;;;5.73;;
8572;SDS011;4324;42.012;24.872;2023-01-19T07:22:12;29.27;;;7.20;;
8572;SDS011;4324;42.012;24.872;2023-01-19T07:24:39;25.37;;;5.83;;
8572;SDS011;4324;42.012;24.872;2023-01-19T07:27:07;24.83;;;6.90;;
8572;SDS011;4324;42.012;24.872;2023-01-19T07:29:35;24.57;;;7.30;;
8572;SDS011;4324;42.012;24.872;2023-01-19T07:32:02;28.63;;;6.43;;
8572;SDS011;4324;42.012;24.872;2023-01-19T07:34:30;30.33;;;9.23;;
8572;SDS011;4324;42.012;24.872;2023-01-19T07:36:57;33.50;;;10.57;;
8572;SDS011;4324;42.012;24.872;2023-01-19T07:39:24;29.83;;;9.47;;
8572;SDS011;4324;42.012;24.872;2023-01-19T07:41:51;25.97;;;8.37;;
8572;SDS011;4324;42.012;24.872;2023-01-19T07:44:21;35.00;;;9.60;;
8572;SDS011;4324;42.012;24.872;2023-01-19T07:46:48;31.03;;;10.60;;
8572;SDS011;4324;42.012;24.872;2023-01-19T07:49:15;39.90;;;13.97;;
8572;SDS011;4324;42.012;24.872;2023-01-19T07:51:42;28.63;;;9.60;;
8572;SDS011;4324;42.012;24.872;2023-01-19T07:54:09;29.40;;;11.57;;
8572;SDS011;4324;42.012;24.872;2023-01-19T07:56:36;36.87;;;10.57;;
8572;SDS011;4324;42.012;24.872;2023-01-19T07:59:03;47.03;;;14.37;;
8572;SDS011;4324;42.012;24.872;2023-01-19T08:01:35;37.73;;;14.23;;
8572;SDS011;4324;42.012;24.872;2023-01-19T08:04:02;32.37;;;13.37;;
8572;SDS011;4324;42.012;24.872;2023-01-19T08:06:31;35.53;;;14.50;;
8572;SDS011;4324;42.012;24.872;2023-01-19T08:09:00;31.37;;;12.70;;
8572;SDS011;4324;42.012;24.872;2023-01-19T08:11:29;34.37;;;12.10;;
8572;SDS011;4324;42.012;24.872;2023-01-19T08:13:57;38.20;;;14.37;;
8572;SDS011;4324;42.012;24.872;2023-01-19T08:16:24;31.47;;;11.17;;
8572;SDS011;4324;42.012;24.872;2023-01-19T08:18:53;31.37;;;11.20;;
8572;SDS011;4324;42.012;24.872;2023-01-19T08:21:20;28.87;;;11.27;;
8572;SDS011;4324;42.012;24.872;2023-01-19T08:23:50;36.07;;;13.77;;
8572;SDS011;4324;42.012;24.872;2023-01-19T08:26:18;34.30;;;13.27;;
8572;SDS011;4324;42.012;24.872;2023-01-19T08:28:48;38.00;;;12.93;;
8572;SDS011;4324;42.012;24.872;2023-01-19T08:31:17;36.20;;;12.30;;
8572;SDS011;4324;42.012;24.872;2023-01-19T08:33:45;35.43;;;12.30;;
8572;SDS011;4324;42.012;24.872;2023-01-19T08:36:13;39.50;;;13.43;;
8572;SDS011;4324;42.012;24.872;2023-01-19T08:38:40;42.93;;;14.67;;
8572;SDS011;4324;42.012;24.872;2023-01-19T08:41:09;38.53;;;15.50;;
8572;SDS011;4324;42.012;24.872;2023-01-19T08:43:36;41.90;;;15.67;;
8572;SDS011;4324;42.012;24.872;2023-01-19T08:46:03;37.00;;;14.33;;
8572;SDS011;4324;42.012;24.872;2023-01-19T08:48:30;52.27;;;15.60;;
8572;SDS011;4324;42.012;24.872;2023-01-19T08:50:57;41.03;;;16.07;;
8572;SDS011;4324;42.012;24.872;2023-01-19T08:53:26;40.60;;;12.40;;
8572;SDS011;4324;42.012;24.872;2023-01-19T08:55:53;35.33;;;11.80;;
8572;SDS011;4324;42.012;24.872;2023-01-19T08:58:24;28.70;;;8.40;;
8572;SDS011;4324;42.012;24.872;2023-01-19T09:00:51;28.17;;;12.43;;
8572;SDS011;4324;42.012;24.872;2023-01-19T09:03:18;38.17;;;10.17;;
8572;SDS011;4324;42.012;24.872;2023-01-19T09:05:46;31.80;;;10.33;;
8572;SDS011;4324;42.012;24.872;2023-01-19T09:08:14;39.87;;;12.73;;
8572;SDS011;4324;42.012;24.872;2023-01-19T09:10:45;33.30;;;8.67;;
8572;SDS011;4324;42.012;24.872;2023-01-19T09:13:13;36.17;;;10.73;;
8572;SDS011;4324;42.012;24.872;2023-01-19T09:15:41;26.23;;;6.50;;
8572;SDS011;4324;42.012;24.872;2023-01-19T09:18:09;25.23;;;7.47;;
8572;SDS011;4324;42.012;24.872;2023-01-19T09:20:38;24.97;;;9.37;;
8572;SDS011;4324;42.012;24.872;2023-01-19T09:23:07;31.47;;;8.27;;
8572;SDS011;4324;42.012;24.872;2023-01-19T09:25:35;23.87;;;6.90;;
8572;SDS011;4324;42.012;24.872;2023-01-19T09:28:04;23.03;;;6.47;;
8572;SDS011;4324;42.012;24.872;2023-01-19T09:30:33;25.33;;;6.60;;
8572;SDS011;4324;42.012;24.872;2023-01-19T09:33:01;23.73;;;6.43;;
8572;SDS011;4324;42.012;24.872;2023-01-19T09:35:30;23.30;;;5.93;;
8572;SDS011;4324;42.012;24.872;2023-01-19T09:37:58;30.77;;;7.93;;
8572;SDS011;4324;42.012;24.872;2023-01-19T09:40:25;26.37;;;6.33;;
8572;SDS011;4324;42.012;24.872;2023-01-19T09:42:54;28.60;;;6.63;;
8572;SDS011;4324;42.012;24.872;2023-01-19T09:45:28;28.00;;;7.27;;
8572;SDS011;4324;42.012;24.872;2023-01-19T09:48:01;25.53;;;6.77;;
8572;SDS011;4324;42.012;24.872;2023-01-19T09:50:38;23.30;;;7.63;;
8572;SDS011;4324;42.012;24.872;2023-01-19T09:53:13;28.33;;;8.40;;
8572;SDS011;4324;42.012;24.872;2023-01-19T09:55:46;24.07;;;6.93;;
8572;SDS011;4324;42.012;24.872;2023-01-19T09:58:14;30.47;;;8.50;;
8572;SDS011;4324;42.012;24.872;2023-01-19T10:00:46;23.50;;;7.43;;
8572;SDS011;4324;42.012;24.872;2023-01-19T10:03:24;21.80;;;5.63;;
8572;SDS011;4324;42.012;24.872;2023-01-19T10:05:51;30.50;;;8.73;;
8572;SDS011;4324;42.012;24.872;2023-01-19T10:08:24;22.20;;;7.23;;
8572;SDS011;4324;42.012;24.872;2023-01-19T10:10:59;25.50;;;7.67;;
8572;SDS011;4324;42.012;24.872;2023-01-19T10:13:28;36.27;;;15.30;;
8572;SDS011;4324;42.012;24.872;2023-01-19T10:16:05;20.33;;;7.47;;
8572;SDS011;4324;42.012;24.872;2023-01-19T10:18:41;18.87;;;4.93;;
8572;SDS011;4324;42.012;24.872;2023-01-19T10:21:13;17.87;;;5.20;;
8572;SDS011;4324;42.012;24.872;2023-01-19T10:23:44;22.93;;;5.77;;
8572;SDS011;4324;42.012;24.872;2023-01-19T10:26:15;21.43;;;5.80;;
8572;SDS011;4324;42.012;24.872;2023-01-19T10:28:44;22.27;;;10.03;;
8572;SDS011;4324;42.012;24.872;2023-01-19T10:31:16;22.23;;;6.73;;
8572;SDS011;4324;42.012;24.872;2023-01-19T10:33:46;23.27;;;5.87;;
8572;SDS011;4324;42.012;24.872;2023-01-19T10:36:15;26.47;;;7.50;;
8572;SDS011;4324;42.012;24.872;2023-01-19T10:38:44;24.13;;;7.90;;
8572;SDS011;4324;42.012;24.872;2023-01-19T10:41:13;22.90;;;6.07;;
8572;SDS011;4324;42.012;24.872;2023-01-19T10:43:44;24.23;;;9.73;;
8572;SDS011;4324;42.012;24.872;2023-01-19T10:46:23;32.23;;;9.13;;
8572;SDS011;4324;42.012;24.872;2023-01-19T10:48:58;23.33;;;7.03;;
8572;SDS011;4324;42.012;24.872;2023-01-19T10:51:25;24.67;;;7.23;;
8572;SDS011;4324;42.012;24.872;2023-01-19T10:53:59;27.90;;;8.53;;
8572;SDS011;4324;42.012;24.872;2023-01-19T10:56:31;28.40;;;6.53;;
8572;SDS011;4324;42.012;24.872;2023-01-19T10:59:01;20.17;;;6.27;;
8572;SDS011;4324;42.012;24.872;2023-01-19T11:01:32;16.23;;;5.90;;
8572;SDS011;4324;42.012;24.872;2023-01-19T11:04:17;27.00;;;6.07;;
8572;SDS011;4324;42.012;24.872;2023-01-19T11:06:46;21.27;;;5.57;;
8572;SDS011;4324;42.012;24.872;2023-01-19T11:09:17;25.17;;;9.37;;
8572;SDS011;4324;42.012;24.872;2023-01-19T11:11:46;19.93;;;4.50;;
8572;SDS011;4324;42.012;24.872;2023-01-19T11:14:16;13.60;;;4.70;;
8572;SDS011;4324;42.012;24.872;2023-01-19T11:16:47;21.40;;;7.40;;
8572;SDS011;4324;42.012;24.872;2023-01-19T11:19:18;16.93;;;4.67;;
8572;SDS011;4324;42.012;24.872;2023-01-19T11:21:49;24.03;;;5.80;;
8572;SDS011;4324;42.012;24.872;2023-01-19T11:24:17;25.37;;;5.60;;
8572;SDS011;4324;42.012;24.872;2023-01-19T11:26:48;20.07;;;4.97;;
8572;SDS011;4324;42.012;24.872;2023-01-19T11:29:22;21.20;;;5.63;;
8572;SDS011;4324;42.012;24.872;2023-01-19T11:31:53;15.50;;;4.20;;
8572;SDS011;4324;42.012;24.872;2023-01-19T11:34:22;26.03;;;5.63;;
8572;SDS011;4324;42.012;24.872;2023-01-19T11:36:56;20.03;;;4.97;;
8572;SDS011;4324;42.012;24.872;2023-01-19T11:39:24;12.17;;;3.87;;
8572;SDS011;4324;42.012;24.872;2023-01-19T11:41:53;16.67;;;5.97;;
8572;SDS011;4324;42.012;24.872;2023-01-19T11:44:24;15.33;;;4.97;;
8572;SDS011;4324;42.012;24.872;2023-01-19T11:46:56;12.50;;;6.00;;
8572;SDS011;4324;42.012;24.872;2023-01-19T11:49:28;12.93;;;4.23;;
8572;SDS011;4324;42.012;24.872;2023-01-19T11:52:03;17.83;;;4.70;;
8572;SDS011;4324;42.012;24.872;2023-01-19T11:54:34;16.40;;;4.17;;
8572;SDS011;4324;42.012;24.872;2023-01-19T11:57:09;12.73;;;4.67;;
8572;SDS011;4324;42.012;24.872;2023-01-19T11:59:39;12.30;;;3.73;;
8572;SDS011;4324;42.012;24.872;2023-01-19T12:02:13;14.20;;;4.47;;
8572;SDS011;4324;42.012;24.872;2023-01-19T12:04:46;10.07;;;4.10;;
8572;SDS011;4324;42.012;24.872;2023-01-19T12:07:24;9.60;;;3.63;;
8572;SDS011;4324;42.012;24.872;2023-01-19T12:10:01;12.27;;;6.30;;
8572;SDS011;4324;42.012;24.872;2023-01-19T12:12:39;7.87;;;3.77;;
8572;SDS011;4324;42.012;24.872;2023-01-19T12:15:10;6.73;;;3.37;;
8572;SDS011;4324;42.012;24.872;2023-01-19T12:18:10;8.13;;;3.40;;
8572;SDS011;4324;42.012;24.872;2023-01-19T12:20:44;10.20;;;3.67;;
8572;SDS011;4324;42.012;24.872;2023-01-19T12:23:18;9.83;;;3.37;;
8572;SDS011;4324;42.012;24.872;2023-01-19T12:25:56;8.20;;;2.83;;
8572;SDS011;4324;42.012;24.872;2023-01-19T12:28:31;8.73;;;3.07;;
8572;SDS011;4324;42.012;24.872;2023-01-19T12:31:00;16.50;;;3.63;;
8572;SDS011;4324;42.012;24.872;2023-01-19T12:33:36;8.13;;;3.47;;
8572;SDS011;4324;42.012;24.872;2023-01-19T12:36:08;7.93;;;2.73;;
8572;SDS011;4324;42.012;24.872;2023-01-19T12:39:00;10.37;;;3.23;;
8572;SDS011;4324;42.012;24.872;2023-01-19T12:41:28;11.53;;;3.23;;
8572;SDS011;4324;42.012;24.872;2023-01-19T12:44:19;11.97;;;3.13;;
8572;SDS011;4324;42.012;24.872;2023-01-19T12:46:51;10.87;;;3.70;;
8572;SDS011;4324;42.012;24.872;2023-01-19T12:49:27;10.60;;;3.53;;
8572;SDS011;4324;42.012;24.872;2023-01-19T12:52:16;8.40;;;3.00;;
8572;SDS011;4324;42.012;24.872;2023-01-19T12:54:57;10.67;;;3.40;;
8572;SDS011;4324;42.012;24.872;2023-01-19T12:57:33;9.37;;;4.00;;
8572;SDS011;4324;42.012;24.872;2023-01-19T13:00:05;9.13;;;3.00;;
8572;SDS011;4324;42.012;24.872;2023-01-19T13:02:53;8.40;;;3.83;;
8572;SDS011;4324;42.012;24.872;2023-01-19T13:05:35;11.70;;;3.87;;
8572;SDS011;4324;42.012;24.872;2023-01-19T13:08:18;13.17;;;3.53;;
8572;SDS011;4324;42.012;24.872;2023-01-19T13:10:54;11.83;;;3.60;;
8572;SDS011;4324;42.012;24.872;2023-01-19T13:13:38;13.03;;;4.63;;
8572;SDS011;4324;42.012;24.872;2023-01-19T13:19:13;8.77;;;3.77;;
8572;SDS011;4324;42.012;24.872;2023-01-19T13:21:43;14.73;;;2.87;;
8572;SDS011;4324;42.012;24.872;2023-01-19T13:24:12;14.10;;;4.10;;
8572;SDS011;4324;42.012;24.872;2023-01-19T13:26:41;14.80;;;4.07;;
8572;SDS011;4324;42.012;24.872;2023-01-19T13:29:19;19.57;;;5.53;;
8572;SDS011;4324;42.012;24.872;2023-01-19T13:31:51;17.37;;;4.03;;
8572;SDS011;4324;42.012;24.872;2023-01-19T13:34:27;11.23;;;3.87;;
8572;SDS011;4324;42.012;24.872;2023-01-19T13:36:57;13.23;;;3.10;;
8572;SDS011;4324;42.012;24.872;2023-01-19T13:39:26;6.67;;;3.83;;
8572;SDS011;4324;42.012;24.872;2023-01-19T13:41:56;13.77;;;3.60;;
8572;SDS011;4324;42.012;24.872;2023-01-19T13:44:27;8.27;;;3.87;;
8572;SDS011;4324;42.012;24.872;2023-01-19T13:46:58;6.33;;;3.47;;
8572;SDS011;4324;42.012;24.872;2023-01-19T13:49:26;13.77;;;7.17;;
8572;SDS011;4324;42.012;24.872;2023-01-19T13:52:12;6.57;;;3.40;;
8572;SDS011;4324;42.012;24.872;2023-01-19T13:54:46;8.60;;;2.93;;
8572;SDS011;4324;42.012;24.872;2023-01-19T14:00:09;11.70;;;3.83;;
8572;SDS011;4324;42.012;24.872;2023-01-19T14:02:49;8.77;;;4.10;;
8572;SDS011;4324;42.012;24.872;2023-01-19T14:05:22;9.90;;;3.80;;
8572;SDS011;4324;42.012;24.872;2023-01-19T14:08:03;11.37;;;3.90;;
8572;SDS011;4324;42.012;24.872;2023-01-19T14:10:38;9.97;;;3.57;;
8572;SDS011;4324;42.012;24.872;2023-01-19T14:13:14;10.47;;;3.70;;
8572;SDS011;4324;42.012;24.872;2023-01-19T14:15:43;9.30;;;3.17;;
8572;SDS011;4324;42.012;24.872;2023-01-19T14:18:21;11.57;;;2.90;;
8572;SDS011;4324;42.012;24.872;2023-01-19T14:20:51;5.60;;;2.63;;
8572;SDS011;4324;42.012;24.872;2023-01-19T14:23:39;9.57;;;3.43;;
8572;SDS011;4324;42.012;24.872;2023-01-19T14:29:06;9.80;;;3.90;;
8572;SDS011;4324;42.012;24.872;2023-01-19T14:31:41;11.53;;;4.30;;
8572;SDS011;4324;42.012;24.872;2023-01-19T14:36:54;7.07;;;3.30;;
8572;SDS011;4324;42.012;24.872;2023-01-19T14:39:24;9.17;;;3.80;;
8572;SDS011;4324;42.012;24.872;2023-01-19T14:41:53;9.00;;;3.23;;
8572;SDS011;4324;42.012;24.872;2023-01-19T14:44:23;8.53;;;3.00;;
8572;SDS011;4324;42.012;24.872;2023-01-19T14:46:54;12.30;;;5.17;;
8572;SDS011;4324;42.012;24.872;2023-01-19T14:49:27;10.03;;;3.43;;
8572;SDS011;4324;42.012;24.872;2023-01-19T14:51:56;9.60;;;4.90;;
8572;SDS011;4324;42.012;24.872;2023-01-19T14:54:28;10.63;;;4.50;;
8572;SDS011;4324;42.012;24.872;2023-01-19T14:56:58;10.47;;;3.57;;
8572;SDS011;4324;42.012;24.872;2023-01-19T14:59:25;11.53;;;4.23;;
8572;SDS011;4324;42.012;24.872;2023-01-19T15:01:52;15.07;;;6.17;;
8572;SDS011;4324;42.012;24.872;2023-01-19T15:04:19;14.37;;;4.70;;
8572;SDS011;4324;42.012;24.872;2023-01-19T15:06:47;12.07;;;3.87;;
8572;SDS011;4324;42.012;24.872;2023-01-19T15:09:14;18.47;;;9.57;;
8572;SDS011;4324;42.012;24.872;2023-01-19T15:11:43;9.90;;;4.60;;
8572;SDS011;4324;42.012;24.872;2023-01-19T15:14:13;11.13;;;4.90;;
8572;SDS011;4324;42.012;24.872;2023-01-19T15:16:42;9.50;;;3.87;;
8572;SDS011;4324;42.012;24.872;2023-01-19T15:19:10;11.07;;;6.23;;